sensor_id;sensor_type;location;lat;lon;timestamp;P1;durP1;ratioP1;P2;durP2;ratioP2
65691;SDS011;52411;52.716;6.696;2023-01-01T00:01:43;47.25;;;27.73;;
65691;SDS011;52411;52.716;6.696;2023-01-01T00:04:13;44.53;;;26.45;;
65691;SDS011;52411;52.716;6.696;2023-01-01T00:06:40;43.20;;;22.73;;
65691;SDS011;52411;52.716;6.696;2023-01-01T00:09:06;35.88;;;20.52;;
65691;SDS011;52411;52.716;6.696;2023-01-01T00:11:50;28.52;;;19.58;;
65691;SDS011;52411;52.716;6.696;2023-01-01T00:14:16;36.65;;;20.55;;
65691;SDS011;52411;52.716;6.696;2023-01-01T00:16:42;33.50;;;19.38;;
65691;SDS011;52411;52.716;6.696;2023-01-01T00:19:07;40.95;;;25.13;;
65691;SDS011;52411;52.716;6.696;2023-01-01T00:21:33;47.05;;;26.92;;
65691;SDS011;52411;52.716;6.696;2023-01-01T00:23:58;59.58;;;33.95;;
65691;SDS011;52411;52.716;6.696;2023-01-01T00:26:24;57.50;;;35.33;;
65691;SDS011;52411;52.716;6.696;2023-01-01T00:28:50;60.05;;;37.53;;
65691;SDS011;52411;52.716;6.696;2023-01-01T00:31:16;59.45;;;37.33;;
65691;SDS011;52411;52.716;6.696;2023-01-01T00:33:44;57.42;;;32.47;;
65691;SDS011;52411;52.716;6.696;2023-01-01T00:36:14;53.03;;;30.83;;
65691;SDS011;52411;52.716;6.696;2023-01-01T00:38:41;46.90;;;31.88;;
65691;SDS011;52411;52.716;6.696;2023-01-01T00:41:07;38.20;;;24.25;;
65691;SDS011;52411;52.716;6.696;2023-01-01T00:43:33;40.03;;;25.50;;
65691;SDS011;52411;52.716;6.696;2023-01-01T00:45:59;38.92;;;25.83;;
65691;SDS011;52411;52.716;6.696;2023-01-01T00:48:25;42.00;;;23.98;;
65691;SDS011;52411;52.716;6.696;2023-01-01T00:50:51;41.55;;;24.42;;
65691;SDS011;52411;52.716;6.696;2023-01-01T00:53:17;39.42;;;22.58;;
65691;SDS011;52411;52.716;6.696;2023-01-01T00:55:44;31.88;;;21.67;;
65691;SDS011;52411;52.716;6.696;2023-01-01T00:58:11;40.30;;;23.98;;
65691;SDS011;52411;52.716;6.696;2023-01-01T01:00:37;43.78;;;22.98;;
65691;SDS011;52411;52.716;6.696;2023-01-01T01:03:03;38.47;;;23.17;;
65691;SDS011;52411;52.716;6.696;2023-01-01T01:05:29;41.65;;;22.17;;
65691;SDS011;52411;52.716;6.696;2023-01-01T01:07:56;40.65;;;21.02;;
65691;SDS011;52411;52.716;6.696;2023-01-01T01:10:22;33.72;;;21.17;;
65691;SDS011;52411;52.716;6.696;2023-01-01T01:12:49;32.38;;;18.75;;
65691;SDS011;52411;52.716;6.696;2023-01-01T01:15:16;29.70;;;19.42;;
65691;SDS011;52411;52.716;6.696;2023-01-01T01:17:42;39.33;;;20.40;;
65691;SDS011;52411;52.716;6.696;2023-01-01T01:20:08;30.90;;;17.92;;
65691;SDS011;52411;52.716;6.696;2023-01-01T01:22:34;33.63;;;20.58;;
65691;SDS011;52411;52.716;6.696;2023-01-01T01:25:00;31.58;;;18.92;;
65691;SDS011;52411;52.716;6.696;2023-01-01T01:27:25;32.30;;;18.60;;
65691;SDS011;52411;52.716;6.696;2023-01-01T01:29:51;34.05;;;20.58;;
65691;SDS011;52411;52.716;6.696;2023-01-01T01:32:17;35.38;;;19.60;;
65691;SDS011;52411;52.716;6.696;2023-01-01T01:34:43;35.70;;;19.98;;
65691;SDS011;52411;52.716;6.696;2023-01-01T01:37:09;33.45;;;19.67;;
65691;SDS011;52411;52.716;6.696;2023-01-01T01:39:36;33.13;;;19.80;;
65691;SDS011;52411;52.716;6.696;2023-01-01T01:42:02;34.97;;;22.40;;
65691;SDS011;52411;52.716;6.696;2023-01-01T01:49:39;36.00;;;24.40;;
65691;SDS011;52411;52.716;6.696;2023-01-01T01:52:07;34.40;;;22.02;;
65691;SDS011;52411;52.716;6.696;2023-01-01T01:54:33;33.55;;;20.92;;
65691;SDS011;52411;52.716;6.696;2023-01-01T01:57:00;38.33;;;21.48;;
65691;SDS011;52411;52.716;6.696;2023-01-01T01:59:29;42.20;;;21.83;;
65691;SDS011;52411;52.716;6.696;2023-01-01T02:02:00;41.17;;;22.50;;
65691;SDS011;52411;52.716;6.696;2023-01-01T02:04:26;31.20;;;18.50;;
65691;SDS011;52411;52.716;6.696;2023-01-01T02:06:51;32.22;;;18.90;;
65691;SDS011;52411;52.716;6.696;2023-01-01T02:09:18;30.10;;;17.55;;
65691;SDS011;52411;52.716;6.696;2023-01-01T02:11:44;33.65;;;19.33;;
65691;SDS011;52411;52.716;6.696;2023-01-01T02:14:10;32.88;;;16.17;;
65691;SDS011;52411;52.716;6.696;2023-01-01T02:22:09;26.50;;;15.13;;
65691;SDS011;52411;52.716;6.696;2023-01-01T02:24:58;28.63;;;15.10;;
65691;SDS011;52411;52.716;6.696;2023-01-01T02:30:40;29.13;;;14.05;;
65691;SDS011;52411;52.716;6.696;2023-01-01T02:33:10;25.83;;;13.27;;
65691;SDS011;52411;52.716;6.696;2023-01-01T02:35:41;26.23;;;13.02;;
65691;SDS011;52411;52.716;6.696;2023-01-01T02:38:28;26.42;;;11.43;;
65691;SDS011;52411;52.716;6.696;2023-01-01T02:41:10;26.25;;;11.85;;
65691;SDS011;52411;52.716;6.696;2023-01-01T02:43:37;21.70;;;10.70;;
65691;SDS011;52411;52.716;6.696;2023-01-01T02:46:07;22.25;;;10.93;;
65691;SDS011;52411;52.716;6.696;2023-01-01T02:53:47;19.00;;;10.50;;
65691;SDS011;52411;52.716;6.696;2023-01-01T03:15:45;10.00;;;4.78;;
65691;SDS011;52411;52.716;6.696;2023-01-01T03:18:43;11.15;;;4.80;;
65691;SDS011;52411;52.716;6.696;2023-01-01T03:24:33;9.98;;;3.95;;
65691;SDS011;52411;52.716;6.696;2023-01-01T03:27:04;9.75;;;4.68;;
65691;SDS011;52411;52.716;6.696;2023-01-01T03:29:34;11.32;;;4.50;;
65691;SDS011;52411;52.716;6.696;2023-01-01T03:32:04;12.52;;;3.60;;
65691;SDS011;52411;52.716;6.696;2023-01-01T03:34:32;12.38;;;3.45;;
65691;SDS011;52411;52.716;6.696;2023-01-01T03:37:02;13.05;;;3.75;;
65691;SDS011;52411;52.716;6.696;2023-01-01T03:39:45;10.25;;;3.20;;
65691;SDS011;52411;52.716;6.696;2023-01-01T03:44:50;9.75;;;3.60;;
65691;SDS011;52411;52.716;6.696;2023-01-01T03:47:21;8.57;;;3.72;;
65691;SDS011;52411;52.716;6.696;2023-01-01T03:49:48;9.57;;;3.45;;
65691;SDS011;52411;52.716;6.696;2023-01-01T03:54:52;10.70;;;3.80;;
65691;SDS011;52411;52.716;6.696;2023-01-01T04:00:34;7.13;;;3.35;;
65691;SDS011;52411;52.716;6.696;2023-01-01T04:03:13;7.65;;;3.05;;
65691;SDS011;52411;52.716;6.696;2023-01-01T04:05:46;8.65;;;3.03;;
65691;SDS011;52411;52.716;6.696;2023-01-01T04:08:11;12.23;;;3.35;;
65691;SDS011;52411;52.716;6.696;2023-01-01T04:10:40;6.65;;;2.83;;
65691;SDS011;52411;52.716;6.696;2023-01-01T04:13:08;7.25;;;3.03;;
65691;SDS011;52411;52.716;6.696;2023-01-01T04:15:35;5.82;;;2.45;;
65691;SDS011;52411;52.716;6.696;2023-01-01T04:18:01;10.02;;;3.30;;
65691;SDS011;52411;52.716;6.696;2023-01-01T04:20:27;9.75;;;4.35;;
65691;SDS011;52411;52.716;6.696;2023-01-01T04:22:56;8.80;;;3.42;;
65691;SDS011;52411;52.716;6.696;2023-01-01T04:25:22;6.38;;;2.97;;
65691;SDS011;52411;52.716;6.696;2023-01-01T04:27:48;7.40;;;2.47;;
65691;SDS011;52411;52.716;6.696;2023-01-01T04:30:14;7.03;;;3.15;;
65691;SDS011;52411;52.716;6.696;2023-01-01T04:32:40;9.52;;;3.20;;
65691;SDS011;52411;52.716;6.696;2023-01-01T04:35:06;7.22;;;3.38;;
65691;SDS011;52411;52.716;6.696;2023-01-01T04:37:34;11.02;;;2.90;;
65691;SDS011;52411;52.716;6.696;2023-01-01T04:40:00;6.68;;;2.75;;
65691;SDS011;52411;52.716;6.696;2023-01-01T04:42:26;9.60;;;2.80;;
65691;SDS011;52411;52.716;6.696;2023-01-01T04:44:52;10.23;;;2.85;;
65691;SDS011;52411;52.716;6.696;2023-01-01T04:47:17;7.75;;;2.92;;
65691;SDS011;52411;52.716;6.696;2023-01-01T04:49:43;8.23;;;2.55;;
65691;SDS011;52411;52.716;6.696;2023-01-01T04:52:08;7.57;;;2.80;;
65691;SDS011;52411;52.716;6.696;2023-01-01T04:54:34;8.95;;;2.72;;
65691;SDS011;52411;52.716;6.696;2023-01-01T04:57:00;7.55;;;2.42;;
65691;SDS011;52411;52.716;6.696;2023-01-01T04:59:25;8.98;;;2.40;;
65691;SDS011;52411;52.716;6.696;2023-01-01T05:01:52;7.50;;;2.60;;
65691;SDS011;52411;52.716;6.696;2023-01-01T05:04:18;9.23;;;2.90;;
65691;SDS011;52411;52.716;6.696;2023-01-01T05:06:44;12.73;;;3.08;;
65691;SDS011;52411;52.716;6.696;2023-01-01T05:09:10;12.30;;;2.80;;
65691;SDS011;52411;52.716;6.696;2023-01-01T05:11:35;7.88;;;2.30;;
65691;SDS011;52411;52.716;6.696;2023-01-01T05:14:01;6.78;;;2.42;;
65691;SDS011;52411;52.716;6.696;2023-01-01T05:16:29;5.35;;;1.83;;
65691;SDS011;52411;52.716;6.696;2023-01-01T05:18:57;5.90;;;1.90;;
65691;SDS011;52411;52.716;6.696;2023-01-01T05:21:24;4.38;;;1.85;;
65691;SDS011;52411;52.716;6.696;2023-01-01T05:23:56;5.57;;;2.00;;
65691;SDS011;52411;52.716;6.696;2023-01-01T05:26:31;5.75;;;1.90;;
65691;SDS011;52411;52.716;6.696;2023-01-01T05:28:58;5.40;;;1.92;;
65691;SDS011;52411;52.716;6.696;2023-01-01T05:31:28;3.42;;;1.80;;
65691;SDS011;52411;52.716;6.696;2023-01-01T05:33:56;4.85;;;1.80;;
65691;SDS011;52411;52.716;6.696;2023-01-01T05:36:26;8.40;;;1.95;;
65691;SDS011;52411;52.716;6.696;2023-01-01T05:38:54;5.85;;;1.52;;
65691;SDS011;52411;52.716;6.696;2023-01-01T05:41:20;6.68;;;1.75;;
65691;SDS011;52411;52.716;6.696;2023-01-01T05:43:47;5.60;;;1.85;;
65691;SDS011;52411;52.716;6.696;2023-01-01T05:46:14;6.40;;;1.70;;
65691;SDS011;52411;52.716;6.696;2023-01-01T05:48:42;5.28;;;1.80;;
65691;SDS011;52411;52.716;6.696;2023-01-01T05:51:10;8.77;;;1.67;;
65691;SDS011;52411;52.716;6.696;2023-01-01T05:56:08;5.43;;;2.00;;
65691;SDS011;52411;52.716;6.696;2023-01-01T05:58:34;5.93;;;1.85;;
65691;SDS011;52411;52.716;6.696;2023-01-01T06:03:34;6.78;;;1.95;;
65691;SDS011;52411;52.716;6.696;2023-01-01T06:06:04;5.93;;;2.00;;
65691;SDS011;52411;52.716;6.696;2023-01-01T06:08:31;4.82;;;1.60;;
65691;SDS011;52411;52.716;6.696;2023-01-01T06:10:58;5.00;;;1.70;;
65691;SDS011;52411;52.716;6.696;2023-01-01T06:13:25;4.13;;;1.80;;
65691;SDS011;52411;52.716;6.696;2023-01-01T06:15:57;6.20;;;2.00;;
65691;SDS011;52411;52.716;6.696;2023-01-01T06:18:24;5.97;;;2.28;;
65691;SDS011;52411;52.716;6.696;2023-01-01T06:20:51;5.60;;;2.58;;
65691;SDS011;52411;52.716;6.696;2023-01-01T06:23:17;3.72;;;1.83;;
65691;SDS011;52411;52.716;6.696;2023-01-01T06:25:43;3.47;;;1.80;;
65691;SDS011;52411;52.716;6.696;2023-01-01T06:28:08;7.80;;;2.10;;
65691;SDS011;52411;52.716;6.696;2023-01-01T06:30:34;4.15;;;1.95;;
65691;SDS011;52411;52.716;6.696;2023-01-01T06:33:01;4.97;;;1.83;;
65691;SDS011;52411;52.716;6.696;2023-01-01T06:35:27;5.95;;;1.90;;
65691;SDS011;52411;52.716;6.696;2023-01-01T06:37:52;3.50;;;1.60;;
65691;SDS011;52411;52.716;6.696;2023-01-01T06:40:18;5.35;;;1.70;;
65691;SDS011;52411;52.716;6.696;2023-01-01T06:42:44;4.47;;;1.75;;
65691;SDS011;52411;52.716;6.696;2023-01-01T06:45:09;5.65;;;2.28;;
65691;SDS011;52411;52.716;6.696;2023-01-01T06:47:35;5.57;;;1.83;;
65691;SDS011;52411;52.716;6.696;2023-01-01T06:50:02;6.10;;;1.83;;
65691;SDS011;52411;52.716;6.696;2023-01-01T06:52:28;10.23;;;1.83;;
65691;SDS011;52411;52.716;6.696;2023-01-01T06:54:53;4.93;;;1.60;;
65691;SDS011;52411;52.716;6.696;2023-01-01T06:57:19;4.78;;;1.83;;
65691;SDS011;52411;52.716;6.696;2023-01-01T06:59:44;5.88;;;1.83;;
65691;SDS011;52411;52.716;6.696;2023-01-01T07:02:10;6.82;;;1.90;;
65691;SDS011;52411;52.716;6.696;2023-01-01T07:04:36;6.28;;;1.77;;
65691;SDS011;52411;52.716;6.696;2023-01-01T07:07:02;5.13;;;1.80;;
65691;SDS011;52411;52.716;6.696;2023-01-01T07:09:28;3.47;;;1.67;;
65691;SDS011;52411;52.716;6.696;2023-01-01T07:11:53;7.35;;;2.03;;
65691;SDS011;52411;52.716;6.696;2023-01-01T07:14:19;7.75;;;2.00;;
65691;SDS011;52411;52.716;6.696;2023-01-01T07:16:45;5.85;;;1.73;;
65691;SDS011;52411;52.716;6.696;2023-01-01T07:19:10;5.93;;;1.75;;
65691;SDS011;52411;52.716;6.696;2023-01-01T07:21:49;3.80;;;1.75;;
65691;SDS011;52411;52.716;6.696;2023-01-01T07:24:17;7.45;;;1.70;;
65691;SDS011;52411;52.716;6.696;2023-01-01T07:26:43;8.85;;;2.10;;
65691;SDS011;52411;52.716;6.696;2023-01-01T07:29:09;6.95;;;1.63;;
65691;SDS011;52411;52.716;6.696;2023-01-01T07:31:37;8.35;;;2.05;;
65691;SDS011;52411;52.716;6.696;2023-01-01T07:34:05;4.13;;;1.83;;
65691;SDS011;52411;52.716;6.696;2023-01-01T07:36:33;4.53;;;1.55;;
65691;SDS011;52411;52.716;6.696;2023-01-01T07:38:59;5.43;;;1.77;;
65691;SDS011;52411;52.716;6.696;2023-01-01T07:41:24;10.00;;;1.88;;
65691;SDS011;52411;52.716;6.696;2023-01-01T07:43:50;7.05;;;2.30;;
65691;SDS011;52411;52.716;6.696;2023-01-01T07:46:15;6.65;;;1.90;;
65691;SDS011;52411;52.716;6.696;2023-01-01T07:48:42;6.28;;;1.65;;
65691;SDS011;52411;52.716;6.696;2023-01-01T07:51:08;8.00;;;2.00;;
65691;SDS011;52411;52.716;6.696;2023-01-01T07:53:34;7.53;;;1.90;;
65691;SDS011;52411;52.716;6.696;2023-01-01T07:55:59;10.05;;;2.13;;
65691;SDS011;52411;52.716;6.696;2023-01-01T07:58:25;7.28;;;2.03;;
65691;SDS011;52411;52.716;6.696;2023-01-01T08:00:51;8.00;;;1.75;;
65691;SDS011;52411;52.716;6.696;2023-01-01T08:03:16;6.97;;;1.70;;
65691;SDS011;52411;52.716;6.696;2023-01-01T08:05:42;10.60;;;1.85;;
65691;SDS011;52411;52.716;6.696;2023-01-01T08:08:08;6.53;;;2.10;;
65691;SDS011;52411;52.716;6.696;2023-01-01T08:10:34;9.98;;;2.30;;
65691;SDS011;52411;52.716;6.696;2023-01-01T08:13:01;8.65;;;1.52;;
65691;SDS011;52411;52.716;6.696;2023-01-01T08:15:28;5.28;;;1.80;;
65691;SDS011;52411;52.716;6.696;2023-01-01T08:17:55;7.40;;;1.60;;
65691;SDS011;52411;52.716;6.696;2023-01-01T08:20:21;5.57;;;1.70;;
65691;SDS011;52411;52.716;6.696;2023-01-01T08:22:47;9.85;;;1.70;;
65691;SDS011;52411;52.716;6.696;2023-01-01T08:25:12;6.90;;;1.48;;
65691;SDS011;52411;52.716;6.696;2023-01-01T08:27:38;11.48;;;1.92;;
65691;SDS011;52411;52.716;6.696;2023-01-01T08:30:04;5.90;;;1.88;;
65691;SDS011;52411;52.716;6.696;2023-01-01T08:32:30;5.72;;;1.50;;
65691;SDS011;52411;52.716;6.696;2023-01-01T08:34:55;6.40;;;1.73;;
65691;SDS011;52411;52.716;6.696;2023-01-01T08:37:21;7.85;;;2.13;;
65691;SDS011;52411;52.716;6.696;2023-01-01T08:39:48;6.80;;;1.58;;
65691;SDS011;52411;52.716;6.696;2023-01-01T08:42:14;9.05;;;1.67;;
65691;SDS011;52411;52.716;6.696;2023-01-01T08:44:40;9.35;;;2.00;;
65691;SDS011;52411;52.716;6.696;2023-01-01T08:47:05;8.63;;;1.60;;
65691;SDS011;52411;52.716;6.696;2023-01-01T08:49:39;10.05;;;1.73;;
65691;SDS011;52411;52.716;6.696;2023-01-01T08:52:04;6.25;;;1.45;;
65691;SDS011;52411;52.716;6.696;2023-01-01T08:54:30;7.70;;;2.00;;
65691;SDS011;52411;52.716;6.696;2023-01-01T08:56:55;8.20;;;1.40;;
65691;SDS011;52411;52.716;6.696;2023-01-01T08:59:21;7.90;;;1.73;;
65691;SDS011;52411;52.716;6.696;2023-01-01T09:01:47;6.03;;;1.65;;
65691;SDS011;52411;52.716;6.696;2023-01-01T09:04:12;8.65;;;1.70;;
65691;SDS011;52411;52.716;6.696;2023-01-01T09:06:38;5.93;;;1.45;;
65691;SDS011;52411;52.716;6.696;2023-01-01T09:09:04;6.95;;;2.00;;
65691;SDS011;52411;52.716;6.696;2023-01-01T09:11:29;7.13;;;1.63;;
65691;SDS011;52411;52.716;6.696;2023-01-01T09:13:55;6.40;;;1.58;;
65691;SDS011;52411;52.716;6.696;2023-01-01T09:16:21;6.90;;;1.58;;
65691;SDS011;52411;52.716;6.696;2023-01-01T09:18:47;7.60;;;1.65;;
65691;SDS011;52411;52.716;6.696;2023-01-01T09:21:12;7.55;;;1.60;;
65691;SDS011;52411;52.716;6.696;2023-01-01T09:23:38;10.18;;;2.10;;
65691;SDS011;52411;52.716;6.696;2023-01-01T09:26:04;3.78;;;1.58;;
65691;SDS011;52411;52.716;6.696;2023-01-01T09:28:31;10.80;;;2.10;;
65691;SDS011;52411;52.716;6.696;2023-01-01T09:30:56;5.95;;;1.27;;
65691;SDS011;52411;52.716;6.696;2023-01-01T09:33:22;8.85;;;1.58;;
65691;SDS011;52411;52.716;6.696;2023-01-01T09:35:48;5.88;;;1.60;;
65691;SDS011;52411;52.716;6.696;2023-01-01T09:38:13;6.82;;;1.58;;
65691;SDS011;52411;52.716;6.696;2023-01-01T09:46:13;7.65;;;1.70;;
65691;SDS011;52411;52.716;6.696;2023-01-01T09:48:40;9.68;;;1.42;;
65691;SDS011;52411;52.716;6.696;2023-01-01T09:51:14;7.93;;;2.00;;
65691;SDS011;52411;52.716;6.696;2023-01-01T09:56:23;4.45;;;1.40;;
65691;SDS011;52411;52.716;6.696;2023-01-01T09:58:51;8.00;;;1.70;;
65691;SDS011;52411;52.716;6.696;2023-01-01T10:15:04;8.20;;;1.60;;
65691;SDS011;52411;52.716;6.696;2023-01-01T10:17:47;5.82;;;1.30;;
65691;SDS011;52411;52.716;6.696;2023-01-01T10:20:35;5.40;;;1.38;;
65691;SDS011;52411;52.716;6.696;2023-01-01T10:23:38;7.75;;;1.50;;
65691;SDS011;52411;52.716;6.696;2023-01-01T10:26:06;9.48;;;1.92;;
65691;SDS011;52411;52.716;6.696;2023-01-01T10:28:45;8.07;;;1.30;;
65691;SDS011;52411;52.716;6.696;2023-01-01T10:31:32;11.27;;;1.40;;
65691;SDS011;52411;52.716;6.696;2023-01-01T10:34:14;7.82;;;1.70;;
65691;SDS011;52411;52.716;6.696;2023-01-01T10:36:45;10.20;;;1.42;;
65691;SDS011;52411;52.716;6.696;2023-01-01T10:39:15;6.38;;;1.52;;
65691;SDS011;52411;52.716;6.696;2023-01-01T10:41:41;7.45;;;1.23;;
65691;SDS011;52411;52.716;6.696;2023-01-01T10:44:14;9.30;;;1.45;;
65691;SDS011;52411;52.716;6.696;2023-01-01T10:46:52;9.52;;;2.10;;
65691;SDS011;52411;52.716;6.696;2023-01-01T10:49:22;8.88;;;1.52;;
65691;SDS011;52411;52.716;6.696;2023-01-01T10:51:48;10.18;;;2.20;;
65691;SDS011;52411;52.716;6.696;2023-01-01T10:57:46;14.88;;;1.95;;
65691;SDS011;52411;52.716;6.696;2023-01-01T10:59:49;10.05;;;1.60;;
65691;SDS011;52411;52.716;6.696;2023-01-01T11:02:24;7.60;;;2.20;;
65691;SDS011;52411;52.716;6.696;2023-01-01T11:04:52;9.45;;;1.88;;
65691;SDS011;52411;52.716;6.696;2023-01-01T11:07:51;10.23;;;1.77;;
65691;SDS011;52411;52.716;6.696;2023-01-01T11:10:20;9.70;;;1.90;;
65691;SDS011;52411;52.716;6.696;2023-01-01T11:12:49;6.07;;;1.60;;
65691;SDS011;52411;52.716;6.696;2023-01-01T11:15:36;6.82;;;1.83;;
65691;SDS011;52411;52.716;6.696;2023-01-01T11:18:05;10.48;;;1.70;;
65691;SDS011;52411;52.716;6.696;2023-01-01T11:20:53;9.60;;;2.10;;
65691;SDS011;52411;52.716;6.696;2023-01-01T11:23:31;8.13;;;1.55;;
65691;SDS011;52411;52.716;6.696;2023-01-01T11:28:27;9.43;;;1.75;;
65691;SDS011;52411;52.716;6.696;2023-01-01T11:31:00;10.35;;;1.73;;
65691;SDS011;52411;52.716;6.696;2023-01-01T11:33:45;10.20;;;1.80;;
65691;SDS011;52411;52.716;6.696;2023-01-01T11:36:23;15.07;;;2.70;;
65691;SDS011;52411;52.716;6.696;2023-01-01T11:41:41;7.78;;;1.50;;
65691;SDS011;52411;52.716;6.696;2023-01-01T11:44:09;8.95;;;1.73;;
65691;SDS011;52411;52.716;6.696;2023-01-01T11:46:37;8.13;;;1.73;;
65691;SDS011;52411;52.716;6.696;2023-01-01T11:49:10;7.72;;;1.75;;
65691;SDS011;52411;52.716;6.696;2023-01-01T11:51:38;5.80;;;1.60;;
65691;SDS011;52411;52.716;6.696;2023-01-01T11:54:37;8.30;;;1.52;;
65691;SDS011;52411;52.716;6.696;2023-01-01T11:57:17;6.50;;;1.60;;
65691;SDS011;52411;52.716;6.696;2023-01-01T11:59:49;11.17;;;1.80;;
65691;SDS011;52411;52.716;6.696;2023-01-01T12:02:32;8.15;;;1.80;;
65691;SDS011;52411;52.716;6.696;2023-01-01T12:05:07;7.82;;;1.85;;
65691;SDS011;52411;52.716;6.696;2023-01-01T12:07:35;8.57;;;1.80;;
65691;SDS011;52411;52.716;6.696;2023-01-01T12:10:12;9.40;;;1.60;;
65691;SDS011;52411;52.716;6.696;2023-01-01T12:12:55;12.02;;;2.55;;
65691;SDS011;52411;52.716;6.696;2023-01-01T12:20:37;6.60;;;1.35;;
65691;SDS011;52411;52.716;6.696;2023-01-01T12:23:27;11.32;;;1.90;;
65691;SDS011;52411;52.716;6.696;2023-01-01T12:26:00;11.77;;;2.03;;
65691;SDS011;52411;52.716;6.696;2023-01-01T12:29:14;10.73;;;2.05;;
65691;SDS011;52411;52.716;6.696;2023-01-01T12:40:00;7.25;;;2.03;;
65691;SDS011;52411;52.716;6.696;2023-01-01T12:42:57;10.13;;;2.25;;
65691;SDS011;52411;52.716;6.696;2023-01-01T12:56:59;10.07;;;2.55;;
65691;SDS011;52411;52.716;6.696;2023-01-01T12:59:39;11.47;;;2.20;;
65691;SDS011;52411;52.716;6.696;2023-01-01T13:02:13;11.20;;;2.50;;
65691;SDS011;52411;52.716;6.696;2023-01-01T13:04:44;9.60;;;1.80;;
65691;SDS011;52411;52.716;6.696;2023-01-01T13:07:13;12.50;;;2.47;;
65691;SDS011;52411;52.716;6.696;2023-01-01T13:09:41;11.45;;;2.55;;
65691;SDS011;52411;52.716;6.696;2023-01-01T13:12:21;10.25;;;2.15;;
65691;SDS011;52411;52.716;6.696;2023-01-01T13:14:51;9.55;;;2.58;;
65691;SDS011;52411;52.716;6.696;2023-01-01T13:17:17;11.52;;;2.70;;
65691;SDS011;52411;52.716;6.696;2023-01-01T13:19:45;10.82;;;2.45;;
65691;SDS011;52411;52.716;6.696;2023-01-01T13:22:33;11.82;;;2.42;;
65691;SDS011;52411;52.716;6.696;2023-01-01T13:33:17;12.32;;;2.65;;
65691;SDS011;52411;52.716;6.696;2023-01-01T13:36:17;12.75;;;2.65;;
65691;SDS011;52411;52.716;6.696;2023-01-01T13:52:47;13.00;;;2.85;;
65691;SDS011;52411;52.716;6.696;2023-01-01T14:03:29;15.63;;;3.60;;
65691;SDS011;52411;52.716;6.696;2023-01-01T14:06:03;15.45;;;3.33;;
65691;SDS011;52411;52.716;6.696;2023-01-01T14:08:36;10.73;;;3.03;;
65691;SDS011;52411;52.716;6.696;2023-01-01T14:11:02;9.02;;;3.20;;
65691;SDS011;52411;52.716;6.696;2023-01-01T14:13:45;13.65;;;3.80;;
65691;SDS011;52411;52.716;6.696;2023-01-01T14:16:11;12.77;;;3.22;;
65691;SDS011;52411;52.716;6.696;2023-01-01T14:18:44;12.50;;;3.47;;
65691;SDS011;52411;52.716;6.696;2023-01-01T14:21:13;12.80;;;3.65;;
65691;SDS011;52411;52.716;6.696;2023-01-01T14:23:51;10.45;;;3.15;;
65691;SDS011;52411;52.716;6.696;2023-01-01T14:26:26;9.18;;;3.20;;
65691;SDS011;52411;52.716;6.696;2023-01-01T14:28:53;13.52;;;3.25;;
65691;SDS011;52411;52.716;6.696;2023-01-01T14:31:32;11.38;;;4.30;;
65691;SDS011;52411;52.716;6.696;2023-01-01T14:34:13;17.58;;;5.30;;
65691;SDS011;52411;52.716;6.696;2023-01-01T14:36:47;7.75;;;3.50;;
65691;SDS011;52411;52.716;6.696;2023-01-01T14:39:24;8.05;;;3.15;;
65691;SDS011;52411;52.716;6.696;2023-01-01T14:41:52;15.45;;;3.83;;
65691;SDS011;52411;52.716;6.696;2023-01-01T14:44:20;12.88;;;3.95;;
65691;SDS011;52411;52.716;6.696;2023-01-01T14:46:57;11.02;;;3.75;;
65691;SDS011;52411;52.716;6.696;2023-01-01T14:49:29;13.48;;;3.53;;
65691;SDS011;52411;52.716;6.696;2023-01-01T14:52:01;12.25;;;3.97;;
65691;SDS011;52411;52.716;6.696;2023-01-01T14:54:32;12.55;;;3.60;;
65691;SDS011;52411;52.716;6.696;2023-01-01T14:57:01;12.80;;;4.07;;
65691;SDS011;52411;52.716;6.696;2023-01-01T14:59:30;11.85;;;3.78;;
65691;SDS011;52411;52.716;6.696;2023-01-01T15:02:42;13.00;;;3.77;;
65691;SDS011;52411;52.716;6.696;2023-01-01T15:04:54;16.17;;;3.83;;
65691;SDS011;52411;52.716;6.696;2023-01-01T15:07:24;13.80;;;3.85;;
65691;SDS011;52411;52.716;6.696;2023-01-01T15:09:52;9.85;;;3.38;;
65691;SDS011;52411;52.716;6.696;2023-01-01T15:12:19;12.88;;;3.13;;
65691;SDS011;52411;52.716;6.696;2023-01-01T15:14:47;13.10;;;3.42;;
65691;SDS011;52411;52.716;6.696;2023-01-01T15:17:15;12.43;;;3.40;;
65691;SDS011;52411;52.716;6.696;2023-01-01T15:19:42;11.07;;;3.20;;
65691;SDS011;52411;52.716;6.696;2023-01-01T15:22:09;13.95;;;3.63;;
65691;SDS011;52411;52.716;6.696;2023-01-01T15:24:47;14.35;;;3.28;;
65691;SDS011;52411;52.716;6.696;2023-01-01T15:27:32;10.70;;;3.22;;
65691;SDS011;52411;52.716;6.696;2023-01-01T15:30:00;12.60;;;3.30;;
65691;SDS011;52411;52.716;6.696;2023-01-01T15:32:29;10.07;;;3.05;;
65691;SDS011;52411;52.716;6.696;2023-01-01T15:35:02;15.48;;;3.53;;
65691;SDS011;52411;52.716;6.696;2023-01-01T15:42:44;18.30;;;3.97;;
65691;SDS011;52411;52.716;6.696;2023-01-01T15:53:15;13.48;;;3.67;;
65691;SDS011;52411;52.716;6.696;2023-01-01T15:55:51;16.10;;;4.90;;
65691;SDS011;52411;52.716;6.696;2023-01-01T16:01:25;15.63;;;4.75;;
65691;SDS011;52411;52.716;6.696;2023-01-01T16:03:58;12.82;;;4.60;;
65691;SDS011;52411;52.716;6.696;2023-01-01T16:06:44;12.70;;;4.55;;
65691;SDS011;52411;52.716;6.696;2023-01-01T16:09:12;14.90;;;4.68;;
65691;SDS011;52411;52.716;6.696;2023-01-01T16:11:39;15.07;;;4.43;;
65691;SDS011;52411;52.716;6.696;2023-01-01T16:14:05;12.38;;;4.20;;
65691;SDS011;52411;52.716;6.696;2023-01-01T16:16:31;13.00;;;4.00;;
65691;SDS011;52411;52.716;6.696;2023-01-01T16:18:57;14.15;;;4.30;;
65691;SDS011;52411;52.716;6.696;2023-01-01T16:23:51;13.20;;;4.70;;
65691;SDS011;52411;52.716;6.696;2023-01-01T16:26:17;14.55;;;5.18;;
65691;SDS011;52411;52.716;6.696;2023-01-01T16:28:42;17.65;;;5.35;;
65691;SDS011;52411;52.716;6.696;2023-01-01T16:31:12;14.70;;;4.75;;
65691;SDS011;52411;52.716;6.696;2023-01-01T16:33:40;10.95;;;4.32;;
65691;SDS011;52411;52.716;6.696;2023-01-01T16:36:08;15.82;;;4.50;;
65691;SDS011;52411;52.716;6.696;2023-01-01T16:38:35;12.30;;;4.60;;
65691;SDS011;52411;52.716;6.696;2023-01-01T16:41:01;14.80;;;4.53;;
65691;SDS011;52411;52.716;6.696;2023-01-01T16:43:26;19.20;;;5.00;;
65691;SDS011;52411;52.716;6.696;2023-01-01T16:45:52;14.20;;;5.05;;
65691;SDS011;52411;52.716;6.696;2023-01-01T16:48:18;19.67;;;4.68;;
65691;SDS011;52411;52.716;6.696;2023-01-01T16:50:43;19.50;;;4.80;;
65691;SDS011;52411;52.716;6.696;2023-01-01T16:53:09;17.63;;;4.80;;
65691;SDS011;52411;52.716;6.696;2023-01-01T16:55:34;9.73;;;4.50;;
65691;SDS011;52411;52.716;6.696;2023-01-01T16:58:00;13.60;;;5.00;;
65691;SDS011;52411;52.716;6.696;2023-01-01T17:00:26;14.30;;;4.47;;
65691;SDS011;52411;52.716;6.696;2023-01-01T17:02:51;11.13;;;4.47;;
65691;SDS011;52411;52.716;6.696;2023-01-01T17:05:17;16.27;;;5.00;;
65691;SDS011;52411;52.716;6.696;2023-01-01T17:07:42;18.38;;;5.40;;
65691;SDS011;52411;52.716;6.696;2023-01-01T17:10:08;17.25;;;5.68;;
65691;SDS011;52411;52.716;6.696;2023-01-01T17:12:34;16.52;;;6.00;;
65691;SDS011;52411;52.716;6.696;2023-01-01T17:14:59;18.67;;;7.15;;
65691;SDS011;52411;52.716;6.696;2023-01-01T17:17:25;18.67;;;7.57;;
65691;SDS011;52411;52.716;6.696;2023-01-01T17:19:50;21.40;;;9.68;;
65691;SDS011;52411;52.716;6.696;2023-01-01T17:22:16;25.20;;;10.00;;
65691;SDS011;52411;52.716;6.696;2023-01-01T17:24:41;27.52;;;11.32;;
65691;SDS011;52411;52.716;6.696;2023-01-01T17:27:07;24.10;;;10.50;;
65691;SDS011;52411;52.716;6.696;2023-01-01T17:29:33;22.30;;;11.02;;
65691;SDS011;52411;52.716;6.696;2023-01-01T17:31:59;26.02;;;10.02;;